sensor_id;sensor_type;location;lat;lon;timestamp;pressure;altitude;pressure_sealevel;temperature;humidity
30724;BME280;17473;52.286;20.930;2022-10-31T00:01:37;100659.69;;;11.36;100.00
30724;BME280;17473;52.286;20.930;2022-10-31T00:04:05;100650.66;;;11.31;100.00
30724;BME280;17473;52.286;20.930;2022-10-31T00:06:32;100649.31;;;11.42;100.00
30724;BME280;17473;52.286;20.930;2022-10-31T00:09:02;100640.16;;;11.58;100.00
30724;BME280;17473;52.286;20.930;2022-10-31T00:11:29;100645.28;;;11.54;100.00
30724;BME280;17473;52.286;20.930;2022-10-31T00:13:58;100651.13;;;11.71;100.00
30724;BME280;17473;52.286;20.930;2022-10-31T00:16:26;100656.19;;;11.37;99.78
30724;BME280;17473;52.286;20.930;2022-10-31T00:19:01;100653.44;;;11.34;100.00
30724;BME280;17473;52.286;20.930;2022-10-31T00:21:30;100650.66;;;11.31;100.00
30724;BME280;17473;52.286;20.930;2022-10-31T00:23:59;100653.81;;;11.21;100.00
30724;BME280;17473;52.286;20.930;2022-10-31T00:26:31;100657.28;;;11.18;100.00
30724;BME280;17473;52.286;20.930;2022-10-31T00:28:59;100657.78;;;11.08;100.00
30724;BME280;17473;52.286;20.930;2022-10-31T00:31:26;100645.31;;;11.04;100.00
30724;BME280;17473;52.286;20.930;2022-10-31T00:33:53;100655.75;;;11.01;100.00
30724;BME280;17473;52.286;20.930;2022-10-31T00:36:21;100654.75;;;10.97;100.00
30724;BME280;17473;52.286;20.930;2022-10-31T00:38:48;100655.59;;;11.20;100.00
30724;BME280;17473;52.286;20.930;2022-10-31T00:41:17;100658.69;;;11.33;99.78
30724;BME280;17473;52.286;20.930;2022-10-31T00:43:44;100650.81;;;11.36;99.50
30724;BME280;17473;52.286;20.930;2022-10-31T00:46:12;100656.91;;;11.33;99.17
30724;BME280;17473;52.286;20.930;2022-10-31T00:48:40;100664.41;;;11.21;98.96
30724;BME280;17473;52.286;20.930;2022-10-31T00:51:07;100659.03;;;11.18;98.36
30724;BME280;17473;52.286;20.930;2022-10-31T00:53:34;100672.25;;;10.93;99.54
30724;BME280;17473;52.286;20.930;2022-10-31T00:56:02;100666.28;;;10.99;99.84
30724;BME280;17473;52.286;20.930;2022-10-31T00:58:29;100656.50;;;10.72;100.00
30724;BME280;17473;52.286;20.930;2022-10-31T01:00:56;100669.69;;;10.72;100.00
30724;BME280;17473;52.286;20.930;2022-10-31T01:03:30;100664.38;;;10.71;100.00
30724;BME280;17473;52.286;20.930;2022-10-31T01:08:35;100664.25;;;10.68;99.18
30724;BME280;17473;52.286;20.930;2022-10-31T01:11:13;100663.06;;;10.59;100.00
30724;BME280;17473;52.286;20.930;2022-10-31T01:13:41;100665.13;;;10.68;99.80
30724;BME280;17473;52.286;20.930;2022-10-31T01:16:13;100663.84;;;10.81;99.06
30724;BME280;17473;52.286;20.930;2022-10-31T01:18:40;100663.84;;;10.81;99.38
30724;BME280;17473;52.286;20.930;2022-10-31T01:21:17;100674.59;;;10.86;99.19
30724;BME280;17473;52.286;20.930;2022-10-31T01:23:45;100664.81;;;10.83;98.77
30724;BME280;17473;52.286;20.930;2022-10-31T01:26:16;100671.25;;;10.67;98.80
30724;BME280;17473;52.286;20.930;2022-10-31T01:28:55;100668.56;;;10.65;99.16
30724;BME280;17473;52.286;20.930;2022-10-31T01:31:28;100678.06;;;10.60;99.66
30724;BME280;17473;52.286;20.930;2022-10-31T01:33:56;100677.41;;;10.66;100.00
30724;BME280;17473;52.286;20.930;2022-10-31T01:36:35;100678.78;;;10.56;100.00
30724;BME280;17473;52.286;20.930;2022-10-31T01:39:06;100672.47;;;10.53;100.00
30724;BME280;17473;52.286;20.930;2022-10-31T01:41:37;100676.31;;;10.61;99.85
30724;BME280;17473;52.286;20.930;2022-10-31T01:52:27;100679.16;;;10.90;100.00
30724;BME280;17473;52.286;20.930;2022-10-31T01:55:07;100676.81;;;10.98;100.00
30724;BME280;17473;52.286;20.930;2022-10-31T01:57:38;100682.97;;;10.98;100.00
30724;BME280;17473;52.286;20.930;2022-10-31T02:00:09;100674.22;;;11.23;100.00
30724;BME280;17473;52.286;20.930;2022-10-31T02:02:37;100672.25;;;11.18;100.00
30724;BME280;17473;52.286;20.930;2022-10-31T02:05:09;100669.59;;;11.18;100.00
30724;BME280;17473;52.286;20.930;2022-10-31T02:07:59;100668.69;;;11.17;100.00
30724;BME280;17473;52.286;20.930;2022-10-31T02:10:31;100671.63;;;11.25;100.00
30724;BME280;17473;52.286;20.930;2022-10-31T02:13:02;100670.47;;;11.18;100.00
30724;BME280;17473;52.286;20.930;2022-10-31T02:15:32;100673.19;;;11.20;100.00
30724;BME280;17473;52.286;20.930;2022-10-31T02:17:59;100672.41;;;11.22;100.00
30724;BME280;17473;52.286;20.930;2022-10-31T02:21:23;100668.16;;;11.27;100.00
30724;BME280;17473;52.286;20.930;2022-10-31T02:27:52;100662.63;;;11.20;100.00
30724;BME280;17473;52.286;20.930;2022-10-31T02:33:10;100670.22;;;11.10;100.00
30724;BME280;17473;52.286;20.930;2022-10-31T02:39:06;100666.97;;;11.18;100.00
30724;BME280;17473;52.286;20.930;2022-10-31T02:41:50;100675.34;;;11.06;100.00
30724;BME280;17473;52.286;20.930;2022-10-31T02:44:58;100674.34;;;11.02;100.00
30724;BME280;17473;52.286;20.930;2022-10-31T02:47:29;100663.84;;;11.05;100.00
30724;BME280;17473;52.286;20.930;2022-10-31T02:50:24;100678.66;;;11.00;100.00
30724;BME280;17473;52.286;20.930;2022-10-31T02:52:53;100668.88;;;10.98;100.00
30724;BME280;17473;52.286;20.930;2022-10-31T02:58:02;100684.66;;;10.96;100.00
30724;BME280;17473;52.286;20.930;2022-10-31T03:00:57;100690.94;;;11.00;100.00
30724;BME280;17473;52.286;20.930;2022-10-31T03:04:01;100686.81;;;11.06;100.00
30724;BME280;17473;52.286;20.930;2022-10-31T03:09:34;100698.88;;;11.00;100.00
30724;BME280;17473;52.286;20.930;2022-10-31T03:17:36;100701.34;;;10.95;100.00
30724;BME280;17473;52.286;20.930;2022-10-31T03:20:07;100695.47;;;11.02;100.00
30724;BME280;17473;52.286;20.930;2022-10-31T03:22:36;100700.63;;;10.99;100.00
30724;BME280;17473;52.286;20.930;2022-10-31T03:25:07;100709.28;;;10.95;100.00
30724;BME280;17473;52.286;20.930;2022-10-31T03:27:36;100714.06;;;11.05;100.00
30724;BME280;17473;52.286;20.930;2022-10-31T03:30:06;100711.34;;;11.02;100.00
30724;BME280;17473;52.286;20.930;2022-10-31T03:32:51;100712.50;;;10.86;100.00
30724;BME280;17473;52.286;20.930;2022-10-31T03:35:22;100716.28;;;10.93;100.00
30724;BME280;17473;52.286;20.930;2022-10-31T03:37:53;100710.13;;;10.94;100.00
30724;BME280;17473;52.286;20.930;2022-10-31T03:40:22;100721.31;;;10.87;100.00
30724;BME280;17473;52.286;20.930;2022-10-31T03:43:15;100710.91;;;10.91;100.00
30724;BME280;17473;52.286;20.930;2022-10-31T03:45:47;100713.00;;;11.00;100.00
30724;BME280;17473;52.286;20.930;2022-10-31T03:48:17;100706.41;;;10.89;100.00
30724;BME280;17473;52.286;20.930;2022-10-31T03:50:51;100720.59;;;10.91;100.00
30724;BME280;17473;52.286;20.930;2022-10-31T03:53:57;100711.97;;;10.72;100.00
30724;BME280;17473;52.286;20.930;2022-10-31T03:59:17;100717.16;;;10.93;100.00
30724;BME280;17473;52.286;20.930;2022-10-31T04:01:50;100712.72;;;10.92;100.00
30724;BME280;17473;52.286;20.930;2022-10-31T04:04:19;100719.13;;;10.99;100.00
30724;BME280;17473;52.286;20.930;2022-10-31T04:06:47;100723.25;;;11.15;100.00
30724;BME280;17473;52.286;20.930;2022-10-31T04:09:16;100718.84;;;10.91;100.00
30724;BME280;17473;52.286;20.930;2022-10-31T04:11:50;100726.00;;;10.71;100.00
30724;BME280;17473;52.286;20.930;2022-10-31T04:14:18;100715.94;;;10.84;100.00
30724;BME280;17473;52.286;20.930;2022-10-31T04:16:45;100714.28;;;10.87;100.00
30724;BME280;17473;52.286;20.930;2022-10-31T04:19:13;100718.97;;;10.72;100.00
30724;BME280;17473;52.286;20.930;2022-10-31T04:21:41;100719.88;;;10.72;100.00
30724;BME280;17473;52.286;20.930;2022-10-31T04:24:10;100726.97;;;10.73;100.00
30724;BME280;17473;52.286;20.930;2022-10-31T04:26:38;100723.66;;;10.79;100.00
30724;BME280;17473;52.286;20.930;2022-10-31T04:29:05;100732.00;;;10.67;100.00
30724;BME280;17473;52.286;20.930;2022-10-31T04:31:32;100727.75;;;10.48;100.00
30724;BME280;17473;52.286;20.930;2022-10-31T04:33:59;100729.22;;;10.41;100.00
30724;BME280;17473;52.286;20.930;2022-10-31T04:36:26;100736.69;;;10.30;100.00
30724;BME280;17473;52.286;20.930;2022-10-31T04:38:53;100732.00;;;10.44;100.00
30724;BME280;17473;52.286;20.930;2022-10-31T04:41:20;100736.25;;;10.63;100.00
30724;BME280;17473;52.286;20.930;2022-10-31T04:43:47;100729.69;;;10.52;100.00
30724;BME280;17473;52.286;20.930;2022-10-31T04:46:14;100732.38;;;10.32;100.00
30724;BME280;17473;52.286;20.930;2022-10-31T04:48:41;100730.78;;;10.36;100.00
30724;BME280;17473;52.286;20.930;2022-10-31T04:51:08;100735.13;;;10.36;100.00
30724;BME280;17473;52.286;20.930;2022-10-31T04:53:35;100734.06;;;10.30;100.00
30724;BME280;17473;52.286;20.930;2022-10-31T04:56:02;100742.56;;;10.23;100.00
30724;BME280;17473;52.286;20.930;2022-10-31T04:58:29;100726.94;;;10.07;100.00
30724;BME280;17473;52.286;20.930;2022-10-31T05:00:56;100736.72;;;10.09;100.00
30724;BME280;17473;52.286;20.930;2022-10-31T05:03:23;100745.81;;;10.16;100.00
30724;BME280;17473;52.286;20.930;2022-10-31T05:05:50;100744.09;;;10.18;100.00
30724;BME280;17473;52.286;20.930;2022-10-31T05:08:17;100747.28;;;10.09;100.00
30724;BME280;17473;52.286;20.930;2022-10-31T05:10:44;100740.13;;;10.28;100.00
30724;BME280;17473;52.286;20.930;2022-10-31T05:13:11;100736.66;;;10.08;100.00
30724;BME280;17473;52.286;20.930;2022-10-31T05:15:38;100744.78;;;10.12;100.00
30724;BME280;17473;52.286;20.930;2022-10-31T05:18:05;100744.19;;;9.98;100.00
30724;BME280;17473;52.286;20.930;2022-10-31T05:20:33;100747.31;;;10.11;100.00
30724;BME280;17473;52.286;20.930;2022-10-31T05:23:00;100739.56;;;10.14;100.00
30724;BME280;17473;52.286;20.930;2022-10-31T05:25:28;100749.00;;;10.30;100.00
30724;BME280;17473;52.286;20.930;2022-10-31T05:27:56;100750.78;;;10.31;100.00
30724;BME280;17473;52.286;20.930;2022-10-31T05:30:31;100755.06;;;10.48;100.00
30724;BME280;17473;52.286;20.930;2022-10-31T05:32:59;100753.91;;;10.42;100.00
30724;BME280;17473;52.286;20.930;2022-10-31T05:35:30;100750.69;;;10.28;100.00
30724;BME280;17473;52.286;20.930;2022-10-31T05:37:58;100754.88;;;10.44;100.00
30724;BME280;17473;52.286;20.930;2022-10-31T05:40:27;100758.72;;;10.52;100.00
30724;BME280;17473;52.286;20.930;2022-10-31T05:42:55;100760.81;;;10.38;100.00
30724;BME280;17473;52.286;20.930;2022-10-31T05:45:24;100751.66;;;10.30;100.00
30724;BME280;17473;52.286;20.930;2022-10-31T05:47:57;100754.84;;;10.23;100.00
30724;BME280;17473;52.286;20.930;2022-10-31T05:50:27;100762.66;;;10.41;100.00
30724;BME280;17473;52.286;20.930;2022-10-31T05:53:01;100752.09;;;10.41;100.00
30724;BME280;17473;52.286;20.930;2022-10-31T05:55:29;100756.69;;;10.68;100.00
30724;BME280;17473;52.286;20.930;2022-10-31T05:57:56;100756.84;;;10.49;100.00
30724;BME280;17473;52.286;20.930;2022-10-31T06:00:25;100762.13;;;10.49;100.00
30724;BME280;17473;52.286;20.930;2022-10-31T06:03:04;100763.28;;;10.56;100.00
30724;BME280;17473;52.286;20.930;2022-10-31T06:05:31;100757.53;;;10.44;100.00
30724;BME280;17473;52.286;20.930;2022-10-31T06:07:59;100756.78;;;10.48;100.00
30724;BME280;17473;52.286;20.930;2022-10-31T06:10:27;100767.41;;;10.28;100.00
30724;BME280;17473;52.286;20.930;2022-10-31T06:12:54;100762.25;;;10.31;100.00
30724;BME280;17473;52.286;20.930;2022-10-31T06:15:21;100772.44;;;10.43;100.00
30724;BME280;17473;52.286;20.930;2022-10-31T06:18:01;100768.97;;;10.44;100.00
30724;BME280;17473;52.286;20.930;2022-10-31T06:20:30;100774.28;;;10.25;100.00
30724;BME280;17473;52.286;20.930;2022-10-31T06:22:58;100783.00;;;10.22;100.00
30724;BME280;17473;52.286;20.930;2022-10-31T06:25:25;100775.84;;;10.20;100.00
30724;BME280;17473;52.286;20.930;2022-10-31T06:27:53;100777.91;;;10.27;100.00
30724;BME280;17473;52.286;20.930;2022-10-31T06:30:20;100780.53;;;10.27;100.00
30724;BME280;17473;52.286;20.930;2022-10-31T06:32:47;100772.94;;;10.78;98.38
30724;BME280;17473;52.286;20.930;2022-10-31T06:35:14;100786.94;;;11.46;95.32
30724;BME280;17473;52.286;20.930;2022-10-31T06:37:41;100784.28;;;12.49;88.78
30724;BME280;17473;52.286;20.930;2022-10-31T06:40:12;100782.28;;;13.59;83.57
30724;BME280;17473;52.286;20.930;2022-10-31T06:42:39;100776.13;;;14.27;79.04
30724;BME280;17473;52.286;20.930;2022-10-31T06:45:06;100794.63;;;14.97;74.97
30724;BME280;17473;52.286;20.930;2022-10-31T06:47:33;100783.03;;;15.37;72.32
30724;BME280;17473;52.286;20.930;2022-10-31T06:50:11;100791.63;;;16.14;69.03
30724;BME280;17473;52.286;20.930;2022-10-31T06:52:38;100791.47;;;16.59;67.02
30724;BME280;17473;52.286;20.930;2022-10-31T06:55:05;100786.56;;;16.89;65.38
30724;BME280;17473;52.286;20.930;2022-10-31T06:57:32;100793.19;;;17.14;64.08
30724;BME280;17473;52.286;20.930;2022-10-31T06:59:59;100792.66;;;17.43;63.24
30724;BME280;17473;52.286;20.930;2022-10-31T07:02:26;100789.25;;;17.57;63.13
30724;BME280;17473;52.286;20.930;2022-10-31T07:04:53;100795.00;;;17.95;61.82
30724;BME280;17473;52.286;20.930;2022-10-31T07:07:20;100793.13;;;17.87;62.49
30724;BME280;17473;52.286;20.930;2022-10-31T07:09:48;100786.91;;;17.88;61.97
30724;BME280;17473;52.286;20.930;2022-10-31T07:12:16;100785.34;;;18.05;61.32
30724;BME280;17473;52.286;20.930;2022-10-31T07:14:43;100794.28;;;18.12;61.11
30724;BME280;17473;52.286;20.930;2022-10-31T07:17:10;100794.44;;;18.27;61.53
30724;BME280;17473;52.286;20.930;2022-10-31T07:19:37;100794.41;;;18.23;61.34
30724;BME280;17473;52.286;20.930;2022-10-31T07:22:04;100797.31;;;18.51;60.48
30724;BME280;17473;52.286;20.930;2022-10-31T07:24:31;100784.59;;;18.23;61.23
30724;BME280;17473;52.286;20.930;2022-10-31T07:26:58;100787.63;;;18.68;59.62
30724;BME280;17473;52.286;20.930;2022-10-31T07:29:30;100801.00;;;18.70;59.22
30724;BME280;17473;52.286;20.930;2022-10-31T07:31:56;100796.38;;;18.49;60.65
30724;BME280;17473;52.286;20.930;2022-10-31T07:34:23;100785.72;;;18.53;59.88
30724;BME280;17473;52.286;20.930;2022-10-31T07:36:51;100792.19;;;18.88;59.67
30724;BME280;17473;52.286;20.930;2022-10-31T07:39:18;100796.28;;;18.33;60.48
30724;BME280;17473;52.286;20.930;2022-10-31T07:41:45;100790.47;;;17.87;62.21
30724;BME280;17473;52.286;20.930;2022-10-31T07:44:12;100797.91;;;18.17;61.42
30724;BME280;17473;52.286;20.930;2022-10-31T07:46:39;100790.34;;;18.81;60.31
30724;BME280;17473;52.286;20.930;2022-10-31T07:49:06;100798.41;;;18.82;59.20
30724;BME280;17473;52.286;20.930;2022-10-31T07:51:33;100806.25;;;18.54;59.42
30724;BME280;17473;52.286;20.930;2022-10-31T07:54:00;100803.41;;;18.39;59.73
30724;BME280;17473;52.286;20.930;2022-10-31T07:56:27;100802.84;;;17.81;61.72
30724;BME280;17473;52.286;20.930;2022-10-31T07:58:54;100805.63;;;17.88;61.29
30724;BME280;17473;52.286;20.930;2022-10-31T08:01:21;100809.22;;;17.93;61.69
30724;BME280;17473;52.286;20.930;2022-10-31T08:03:48;100813.00;;;18.12;60.46
30724;BME280;17473;52.286;20.930;2022-10-31T08:06:15;100812.53;;;18.64;59.56
30724;BME280;17473;52.286;20.930;2022-10-31T08:08:42;100819.25;;;18.12;60.28
30724;BME280;17473;52.286;20.930;2022-10-31T08:11:09;100813.94;;;18.17;59.66
30724;BME280;17473;52.286;20.930;2022-10-31T08:13:36;100818.34;;;18.12;59.53
30724;BME280;17473;52.286;20.930;2022-10-31T08:16:04;100828.84;;;18.97;57.41
30724;BME280;17473;52.286;20.930;2022-10-31T08:18:31;100821.59;;;18.82;57.23
30724;BME280;17473;52.286;20.930;2022-10-31T08:20:58;100817.75;;;18.44;58.23
30724;BME280;17473;52.286;20.930;2022-10-31T08:23:25;100813.38;;;18.55;57.88
30724;BME280;17473;52.286;20.930;2022-10-31T08:25:52;100818.03;;;18.84;56.88
30724;BME280;17473;52.286;20.930;2022-10-31T08:28:19;100826.25;;;19.12;55.88
30724;BME280;17473;52.286;20.930;2022-10-31T08:30:46;100823.78;;;19.59;55.16
30724;BME280;17473;52.286;20.930;2022-10-31T08:33:17;100822.91;;;19.66;54.78
30724;BME280;17473;52.286;20.930;2022-10-31T08:35:45;100831.84;;;19.65;54.77
30724;BME280;17473;52.286;20.930;2022-10-31T08:38:13;100823.97;;;20.35;53.32
30724;BME280;17473;52.286;20.930;2022-10-31T08:40:41;100827.56;;;20.82;51.64
30724;BME280;17473;52.286;20.930;2022-10-31T08:43:13;100830.22;;;20.95;51.47
30724;BME280;17473;52.286;20.930;2022-10-31T08:45:42;100825.59;;;21.41;50.66
30724;BME280;17473;52.286;20.930;2022-10-31T08:48:14;100823.81;;;21.40;50.03
30724;BME280;17473;52.286;20.930;2022-10-31T08:50:43;100834.69;;;21.04;50.78
30724;BME280;17473;52.286;20.930;2022-10-31T08:53:17;100834.34;;;21.94;49.21
30724;BME280;17473;52.286;20.930;2022-10-31T08:55:46;100833.81;;;20.54;50.64
30724;BME280;17473;52.286;20.930;2022-10-31T08:58:18;100829.19;;;21.35;49.71
30724;BME280;17473;52.286;20.930;2022-10-31T09:00:49;100831.09;;;20.99;50.11
30724;BME280;17473;52.286;20.930;2022-10-31T09:03:22;100823.97;;;20.92;50.58
30724;BME280;17473;52.286;20.930;2022-10-31T09:05:53;100823.03;;;21.19;50.02
30724;BME280;17473;52.286;20.930;2022-10-31T09:08:21;100823.78;;;21.45;49.17
30724;BME280;17473;52.286;20.930;2022-10-31T09:10:48;100830.22;;;20.94;50.19
30724;BME280;17473;52.286;20.930;2022-10-31T09:13:19;100826.56;;;21.20;49.78
30724;BME280;17473;52.286;20.930;2022-10-31T09:15:48;100835.38;;;21.65;48.88
30724;BME280;17473;52.286;20.930;2022-10-31T09:18:19;100823.84;;;21.41;49.21
30724;BME280;17473;52.286;20.930;2022-10-31T09:20:48;100832.91;;;20.97;50.33
30724;BME280;17473;52.286;20.930;2022-10-31T09:23:23;100832.94;;;20.41;51.61
30724;BME280;17473;52.286;20.930;2022-10-31T09:25:52;100834.72;;;20.81;51.06
30724;BME280;17473;52.286;20.930;2022-10-31T09:28:22;100825.78;;;20.63;51.40
30724;BME280;17473;52.286;20.930;2022-10-31T09:30:52;100833.78;;;20.71;51.59
30724;BME280;17473;52.286;20.930;2022-10-31T09:33:20;100831.13;;;20.42;52.08
30724;BME280;17473;52.286;20.930;2022-10-31T09:35:47;100829.31;;;20.11;52.76
30724;BME280;17473;52.286;20.930;2022-10-31T09:38:18;100838.25;;;20.04;53.27
30724;BME280;17473;52.286;20.930;2022-10-31T09:41:56;100831.88;;;19.79;54.18
30724;BME280;17473;52.286;20.930;2022-10-31T09:52:38;100836.44;;;20.05;53.65
30724;BME280;17473;52.286;20.930;2022-10-31T09:55:20;100837.41;;;20.84;51.66
30724;BME280;17473;52.286;20.930;2022-10-31T09:57:51;100838.28;;;20.16;52.50
30724;BME280;17473;52.286;20.930;2022-10-31T10:00:21;100833.69;;;19.72;53.98
30724;BME280;17473;52.286;20.930;2022-10-31T10:03:19;100834.63;;;19.85;53.58
30724;BME280;17473;52.286;20.930;2022-10-31T10:06:10;100831.59;;;19.11;55.75
30724;BME280;17473;52.286;20.930;2022-10-31T10:08:38;100828.16;;;19.33;55.94
30724;BME280;17473;52.286;20.930;2022-10-31T10:13:49;100827.41;;;19.73;54.95
30724;BME280;17473;52.286;20.930;2022-10-31T10:19:21;100820.09;;;19.27;56.35
30724;BME280;17473;52.286;20.930;2022-10-31T10:22:12;100822.84;;;19.47;56.02
30724;BME280;17473;52.286;20.930;2022-10-31T10:31:20;100817.72;;;20.29;54.58
30724;BME280;17473;52.286;20.930;2022-10-31T10:34:17;100817.72;;;20.26;55.17
30724;BME280;17473;52.286;20.930;2022-10-31T10:36:56;100815.88;;;19.85;55.35
30724;BME280;17473;52.286;20.930;2022-10-31T10:39:31;100808.66;;;19.78;55.59
30724;BME280;17473;52.286;20.930;2022-10-31T10:42:11;100811.34;;;19.71;55.61
30724;BME280;17473;52.286;20.930;2022-10-31T10:44:58;100810.56;;;19.99;55.50
30724;BME280;17473;52.286;20.930;2022-10-31T10:47:56;100815.88;;;19.97;55.16
30724;BME280;17473;52.286;20.930;2022-10-31T10:50:36;100816.84;;;20.27;55.23
30724;BME280;17473;52.286;20.930;2022-10-31T10:53:39;100809.66;;;20.56;53.76
30724;BME280;17473;52.286;20.930;2022-10-31T10:59:31;100812.25;;;19.72;56.47
30724;BME280;17473;52.286;20.930;2022-10-31T11:01:58;100807.75;;;19.63;56.58
30724;BME280;17473;52.286;20.930;2022-10-31T11:04:35;100810.41;;;19.52;56.63
30724;BME280;17473;52.286;20.930;2022-10-31T11:07:09;100800.53;;;19.48;57.24
30724;BME280;17473;52.286;20.930;2022-10-31T11:09:37;100804.94;;;19.37;57.30
30724;BME280;17473;52.286;20.930;2022-10-31T11:12:20;100801.53;;;19.72;56.36
30724;BME280;17473;52.286;20.930;2022-10-31T11:14:54;100801.59;;;20.05;55.80
30724;BME280;17473;52.286;20.930;2022-10-31T11:17:37;100796.28;;;20.26;55.42
30724;BME280;17473;52.286;20.930;2022-10-31T11:22:47;100806.09;;;20.71;55.84
30724;BME280;17473;52.286;20.930;2022-10-31T11:25:25;100811.41;;;21.13;54.14
30724;BME280;17473;52.286;20.930;2022-10-31T11:28:08;100807.91;;;20.73;55.14
30724;BME280;17473;52.286;20.930;2022-10-31T11:30:57;100804.31;;;20.68;56.40
30724;BME280;17473;52.286;20.930;2022-10-31T11:33:36;100807.00;;;20.76;55.68
30724;BME280;17473;52.286;20.930;2022-10-31T11:36:22;100798.91;;;20.90;55.56
30724;BME280;17473;52.286;20.930;2022-10-31T11:38:50;100792.69;;;20.64;55.96
30724;BME280;17473;52.286;20.930;2022-10-31T11:41:34;100806.91;;;21.16;55.07
30724;BME280;17473;52.286;20.930;2022-10-31T11:44:18;100800.72;;;20.01;57.89
30724;BME280;17473;52.286;20.930;2022-10-31T11:46:59;100802.53;;;20.25;57.66
30724;BME280;17473;52.286;20.930;2022-10-31T11:49:42;100801.59;;;20.05;59.15
30724;BME280;17473;52.286;20.930;2022-10-31T11:55:29;100784.66;;;20.20;59.11
30724;BME280;17473;52.286;20.930;2022-10-31T11:58:01;100792.69;;;20.41;59.30
30724;BME280;17473;52.286;20.930;2022-10-31T12:00:37;100789.13;;;20.42;59.17
30724;BME280;17473;52.286;20.930;2022-10-31T12:05:44;100792.66;;;19.89;59.90
30724;BME280;17473;52.286;20.930;2022-10-31T12:08:13;100784.63;;;19.92;59.88
30724;BME280;17473;52.286;20.930;2022-10-31T12:14:00;100788.06;;;19.50;61.62
30724;BME280;17473;52.286;20.930;2022-10-31T12:16:41;100785.44;;;19.64;61.03
30724;BME280;17473;52.286;20.930;2022-10-31T12:24:45;100786.13;;;19.15;63.38
30724;BME280;17473;52.286;20.930;2022-10-31T12:27:34;100785.22;;;19.07;64.95
30724;BME280;17473;52.286;20.930;2022-10-31T12:30:46;100784.91;;;18.67;65.49
30724;BME280;17473;52.286;20.930;2022-10-31T12:39:28;100765.53;;;18.99;65.55
30724;BME280;17473;52.286;20.930;2022-10-31T12:45:20;100770.75;;;18.83;66.31
30724;BME280;17473;52.286;20.930;2022-10-31T12:51:02;100769.00;;;18.85;66.87
30724;BME280;17473;52.286;20.930;2022-10-31T12:56:57;100769.84;;;18.78;66.93
30724;BME280;17473;52.286;20.930;2022-10-31T13:02:57;100774.78;;;18.21;70.30
30724;BME280;17473;52.286;20.930;2022-10-31T13:05:33;100775.56;;;18.09;70.92
30724;BME280;17473;52.286;20.930;2022-10-31T13:08:09;100776.44;;;18.06;70.83
30724;BME280;17473;52.286;20.930;2022-10-31T13:10:54;100769.34;;;18.11;70.77
30724;BME280;17473;52.286;20.930;2022-10-31T13:16:36;100771.31;;;18.34;69.96
30724;BME280;17473;52.286;20.930;2022-10-31T13:19:21;100774.91;;;18.33;70.23
30724;BME280;17473;52.286;20.930;2022-10-31T13:22:17;100772.22;;;18.33;70.25
30724;BME280;17473;52.286;20.930;2022-10-31T13:25:03;100773.88;;;18.20;71.57
30724;BME280;17473;52.286;20.930;2022-10-31T13:27:50;100774.66;;;18.07;73.02
30724;BME280;17473;52.286;20.930;2022-10-31T13:30:32;100778.03;;;17.92;73.63
30724;BME280;17473;52.286;20.930;2022-10-31T13:33:23;100772.81;;;18.03;73.45
30724;BME280;17473;52.286;20.930;2022-10-31T13:39:00;100769.00;;;17.77;74.36
30724;BME280;17473;52.286;20.930;2022-10-31T13:44:20;100773.19;;;17.53;75.97
30724;BME280;17473;52.286;20.930;2022-10-31T13:46:52;100772.44;;;17.65;75.89
30724;BME280;17473;52.286;20.930;2022-10-31T13:49:40;100781.03;;;17.40;76.95
30724;BME280;17473;52.286;20.930;2022-10-31T13:57:39;100777.63;;;16.87;80.21
30724;BME280;17473;52.286;20.930;2022-10-31T14:02:56;100773.16;;;16.84;80.89
30724;BME280;17473;52.286;20.930;2022-10-31T14:05:34;100770.50;;;16.86;80.58
30724;BME280;17473;52.286;20.930;2022-10-31T14:08:04;100770.22;;;16.64;82.03
30724;BME280;17473;52.286;20.930;2022-10-31T14:10:38;100773.81;;;16.68;82.15
30724;BME280;17473;52.286;20.930;2022-10-31T14:13:29;100775.41;;;16.55;82.48
30724;BME280;17473;52.286;20.930;2022-10-31T14:16:05;100762.88;;;16.49;83.05
30724;BME280;17473;52.286;20.930;2022-10-31T14:18:43;100770.88;;;16.51;83.32
30724;BME280;17473;52.286;20.930;2022-10-31T14:21:27;100766.13;;;16.30;83.73
30724;BME280;17473;52.286;20.930;2022-10-31T14:23:56;100762.38;;;16.18;84.44
30724;BME280;17473;52.286;20.930;2022-10-31T14:29:00;100769.25;;;16.05;85.54
30724;BME280;17473;52.286;20.930;2022-10-31T14:31:53;100770.78;;;15.91;86.49
30724;BME280;17473;52.286;20.930;2022-10-31T14:34:41;100769.91;;;15.90;86.26
30724;BME280;17473;52.286;20.930;2022-10-31T14:37:53;100766.97;;;15.78;87.34
30724;BME280;17473;52.286;20.930;2022-10-31T14:47:21;100775.16;;;15.41;90.31
30724;BME280;17473;52.286;20.930;2022-10-31T14:52:54;100766.75;;;15.21;91.95
30724;BME280;17473;52.286;20.930;2022-10-31T14:55:24;100772.63;;;15.06;93.27
30724;BME280;17473;52.286;20.930;2022-10-31T14:57:58;100770.72;;;14.99;94.33
30724;BME280;17473;52.286;20.930;2022-10-31T15:00:26;100767.72;;;14.83;94.92
30724;BME280;17473;52.286;20.930;2022-10-31T15:05:51;100767.25;;;14.65;95.44
30724;BME280;17473;52.286;20.930;2022-10-31T15:08:45;100773.75;;;14.75;93.97
30724;BME280;17473;52.286;20.930;2022-10-31T15:13:55;100779.34;;;14.50;94.99
30724;BME280;17473;52.286;20.930;2022-10-31T15:16:42;100776.59;;;14.47;95.93